createdAt,value
2022-09-04T00:05:45.743Z,99332.09
2022-09-04T00:12:08.909Z,99337.13
2022-09-04T00:18:29.064Z,99339.75
2022-09-04T00:24:39.905Z,99337.09
2022-09-04T00:30:56.870Z,99337.31
2022-09-04T00:37:14.365Z,99353.16
2022-09-04T00:43:59.276Z,99353.22
2022-09-04T00:50:07.672Z,99359.56
2022-09-04T00:56:27.361Z,99357.78
2022-09-04T01:03:01.688Z,99356.19
2022-09-04T01:09:32.215Z,99358.06
2022-09-04T01:15:50.737Z,99368.69
2022-09-04T01:22:14.335Z,99372.94
2022-09-04T01:28:53.038Z,99380.81
2022-09-04T01:35:16.001Z,99383.16
2022-09-04T01:41:38.168Z,99382.34
2022-09-04T01:47:55.802Z,99379.06
2022-09-04T01:54:22.513Z,99374.72
2022-09-04T02:00:25.641Z,99378.75
2022-09-04T02:06:33.109Z,99374.38
2022-09-04T02:12:58.372Z,99382.84
2022-09-04T02:20:00.497Z,99369.69
2022-09-04T02:26:24.073Z,99379.00
2022-09-04T02:32:42.653Z,99383.66
2022-09-04T02:39:24.997Z,99386.13
2022-09-04T02:45:50.637Z,99383.59
2022-09-04T02:52:15.184Z,99384.59
2022-09-04T02:58:49.830Z,99389.69
2022-09-04T03:05:20.441Z,99394.31
2022-09-04T03:11:41.352Z,99390.78
2022-09-04T03:18:04.483Z,99396.66
2022-09-04T03:24:42.370Z,99391.03
2022-09-04T03:30:45.755Z,99394.75
2022-09-04T03:37:16.106Z,99394.56
2022-09-04T03:43:45.601Z,99401.78
2022-09-04T03:50:10.421Z,99401.16
2022-09-04T03:56:30.295Z,99429.56
2022-09-04T04:03:36.961Z,99424.66
2022-09-04T04:10:45.737Z,99427.81
2022-09-04T04:17:23.496Z,99441.06
2022-09-04T04:23:40.331Z,99464.44
2022-09-04T04:30:03.458Z,99455.97
2022-09-04T04:36:29.468Z,99448.34
2022-09-04T04:43:25.320Z,99447.72
2022-09-04T04:50:06.413Z,99464.88
2022-09-04T04:56:33.994Z,99476.69
2022-09-04T05:02:47.943Z,99477.31
2022-09-04T05:09:01.870Z,99494.91
2022-09-04T05:16:07.987Z,99489.94
2022-09-04T05:22:54.830Z,99497.56
2022-09-04T05:29:19.895Z,99500.84
2022-09-04T05:35:35.347Z,99517.97
2022-09-04T05:42:06.768Z,99531.34
2022-09-04T05:49:18.225Z,99545.78
2022-09-04T05:56:10.972Z,99551.75
2022-09-04T06:03:05.116Z,99549.22
2022-09-04T06:09:36.002Z,99560.59
2022-09-04T06:15:44.920Z,99558.63
2022-09-04T06:22:14.661Z,99572.94
2022-09-04T06:28:34.987Z,99563.84
2022-09-04T06:35:18.252Z,99567.75
2022-09-04T06:41:52.092Z,99575.69
2022-09-04T06:48:32.861Z,99574.47
2022-09-04T06:55:10.772Z,99594.53
2022-09-04T07:01:48.935Z,99621.72
2022-09-04T07:08:07.347Z,99630.88
2022-09-04T07:14:54.872Z,99631.97
2022-09-04T07:21:42.472Z,99619.72
2022-09-04T07:28:21.886Z,99598.91
2022-09-04T07:35:01.682Z,99596.81
2022-09-04T07:41:22.903Z,99590.81
2022-09-04T07:47:45.255Z,99595.19
2022-09-04T07:53:58.207Z,99602.03
2022-09-04T08:00:22.729Z,99597.41
2022-09-04T08:07:11.395Z,99603.97
2022-09-04T08:14:02.666Z,99610.38
2022-09-04T08:20:39.013Z,99617.19
2022-09-04T08:27:04.868Z,99637.38
2022-09-04T08:33:51.219Z,99632.13
2022-09-04T08:39:53.110Z,99640.22
2022-09-04T08:46:11.645Z,99645.97
2022-09-04T08:52:36.776Z,99651.47
2022-09-04T08:58:48.215Z,99658.59
2022-09-04T09:05:10.042Z,99667.38
2022-09-04T09:11:58.055Z,99660.00
2022-09-04T09:18:35.961Z,99660.72
2022-09-04T09:25:08.538Z,99658.88
2022-09-04T09:31:52.865Z,99668.31
2022-09-04T09:38:37.720Z,99668.75
2022-09-04T09:45:06.261Z,99667.38
2022-09-04T09:51:45.569Z,99667.00
2022-09-04T09:58:19.147Z,99669.28
2022-09-04T10:04:48.711Z,99664.81
2022-09-04T10:11:18.451Z,99656.06
2022-09-04T10:17:41.442Z,99654.03
2022-09-04T10:24:07.092Z,99645.75
2022-09-04T10:30:22.238Z,99660.72
2022-09-04T10:36:41.871Z,99651.50
2022-09-04T10:43:23.361Z,99650.69
2022-09-04T10:50:01.133Z,99633.88
2022-09-04T10:56:16.272Z,99632.34
2022-09-04T11:02:42.603Z,99636.38
2022-09-04T11:09:18.499Z,99649.63
2022-09-04T11:16:09.951Z,99633.19
2022-09-04T11:22:41.229Z,99634.88
2022-09-04T11:29:21.328Z,99622.31
2022-09-04T11:36:06.048Z,99620.63
2022-09-04T11:42:28.179Z,99621.41
2022-09-04T11:48:41.144Z,99624.63
2022-09-04T11:55:14.080Z,99624.19
2022-09-04T12:02:07.968Z,99627.22
2022-09-04T12:08:35.874Z,99618.66
2022-09-04T12:15:23.469Z,99627.94
2022-09-04T12:21:54.346Z,99637.06
2022-09-04T12:28:37.965Z,99616.28
2022-09-04T12:35:39.363Z,99613.72
2022-09-04T12:42:31.597Z,99621.38
2022-09-04T12:49:19.372Z,99617.06
2022-09-04T12:55:49.187Z,99614.25
2022-09-04T13:02:27.968Z,99620.47
2022-09-04T13:08:45.717Z,99622.66
2022-09-04T13:21:34.414Z,99612.69
2022-09-04T13:35:51.722Z,99620.75
2022-09-04T13:42:28.913Z,99630.91
2022-09-04T13:56:56.735Z,99624.09
2022-09-04T14:24:51.633Z,99637.19
2022-09-04T14:31:10.787Z,99629.53
2022-09-04T14:37:28.315Z,99622.53
2022-09-04T14:43:40.227Z,99624.59
2022-09-04T14:49:47.339Z,99630.56
2022-09-04T14:57:13.730Z,99628.88
2022-09-04T15:11:00.496Z,99623.97
2022-09-04T15:25:47.971Z,99615.78
2022-09-04T15:32:14.090Z,99620.47
2022-09-04T15:38:27.297Z,99621.59
2022-09-04T15:44:44.557Z,99624.38
2022-09-04T15:51:21.932Z,99625.66
2022-09-04T15:57:48.891Z,99627.00
2022-09-04T19:13:21.176Z,99722.47
2022-09-04T19:20:09.460Z,99729.31
2022-09-04T19:26:41.064Z,99733.41
2022-09-04T19:45:53.609Z,99750.38
2022-09-04T20:08:05.233Z,99761.94
2022-09-04T20:14:35.596Z,99759.25
2022-09-04T20:21:12.787Z,99757.28
2022-09-04T20:27:36.241Z,99767.63
2022-09-04T20:35:13.835Z,99777.78
2022-09-04T20:41:33.279Z,99772.34
2022-09-04T20:53:00.033Z,99780.25
2022-09-04T20:55:20.275Z,99783.09
2022-09-04T21:03:07.588Z,99788.91
2022-09-04T21:08:19.817Z,99795.41
2022-09-04T21:14:44.946Z,99785.34
2022-09-04T21:21:23.098Z,99798.16
2022-09-04T21:27:56.231Z,99805.00
2022-09-04T21:34:33.052Z,99810.88
2022-09-04T21:41:14.455Z,99805.03
2022-09-04T21:47:17.320Z,99808.44
2022-09-04T21:53:25.022Z,99819.94
2022-09-04T22:02:37.647Z,99812.72
2022-09-04T22:06:29.253Z,99818.72
2022-09-04T22:13:44.167Z,99823.66
2022-09-04T22:20:18.809Z,99818.72
2022-09-04T22:26:44.689Z,99824.31
2022-09-04T22:33:13.859Z,99819.28
2022-09-04T22:39:36.607Z,99817.25
2022-09-04T22:52:47.327Z,99829.19
2022-09-04T22:59:26.108Z,99827.72
2022-09-04T23:13:18.089Z,99826.56
2022-09-04T23:13:56.886Z,99825.97
2022-09-04T23:26:36.197Z,99830.88
2022-09-04T23:27:28.835Z,99821.06
2022-09-04T23:34:07.193Z,99832.28
2022-09-04T23:40:17.944Z,99821.06
2022-09-04T23:46:29.247Z,99824.84
2022-09-04T23:52:59.834Z,99831.38
2022-09-04T23:59:45.998Z,99826.47
